Time;durP1;ratioP1;P1;durP2;ratioP2;P2;SDS_P1;SDS_P2;PMS_P1;PMS_P2;Temp;Humidity;BMP_temperature;BMP_pressure;BME280_temperature;BME280_humidity;BME280_pressure;Samples;Min_cycle;Max_cycle;Signal;HPM_P1;HPM_P2
2022/09/26 00:01:27;;;;;;;4.20;3.80;;;11.40;86.50;;;;;;4970408;28;20521;-86
2022/09/26 00:04:01;;;;;;;5.63;5.13;;;11.50;86.00;;;;;;4959467;28;20528;-86
2022/09/26 00:06:28;;;;;;;4.33;3.87;;;11.50;85.80;;;;;;4970091;28;20537;-86
2022/09/26 00:08:55;;;;;;;5.30;4.07;;;11.40;85.90;;;;;;4972158;28;20466;-86
2022/09/26 00:11:28;;;;;;;4.40;4.00;;;11.40;86.00;;;;;;4971299;28;20541;-86
2022/09/26 00:13:59;;;;;;;5.40;3.87;;;11.30;86.80;;;;;;4954066;28;20466;-86
2022/09/26 00:16:26;;;;;;;4.67;3.90;;;11.30;86.50;;;;;;4952395;28;20510;-86
2022/09/26 00:18:55;;;;;;;5.43;3.27;;;11.40;86.00;;;;;;4969525;28;20462;-86
2022/09/26 00:21:22;;;;;;;5.73;4.50;;;11.40;85.70;;;;;;4950526;28;20521;-86
2022/09/26 00:23:49;;;;;;;4.47;4.07;;;11.40;86.20;;;;;;4952213;28;20509;-86
2022/09/26 00:26:18;;;;;;;4.10;3.20;;;11.30;86.30;;;;;;4956347;28;20461;-86
2022/09/26 00:28:46;;;;;;;4.53;4.13;;;11.30;86.10;;;;;;4970614;28;20579;-86
2022/09/26 00:31:17;;;;;;;5.43;3.70;;;11.20;86.50;;;;;;4955743;28;20458;-86
2022/09/26 00:33:44;;;;;;;4.30;3.77;;;11.10;86.80;;;;;;4973018;28;20521;-86
2022/09/26 00:36:10;;;;;;;5.00;4.00;;;11.10;87.00;;;;;;4956176;28;20490;-86
2022/09/26 00:38:38;;;;;;;5.00;4.50;;;11.00;87.00;;;;;;4954990;28;20545;-86
2022/09/26 00:41:05;;;;;;;6.90;3.97;;;10.90;87.40;;;;;;4953327;28;20474;-86
2022/09/26 00:43:40;;;;;;;4.83;4.17;;;10.80;87.90;;;;;;4970019;28;20498;-86
2022/09/26 00:46:22;;;;;;;6.93;4.40;;;10.80;88.20;;;;;;4954811;28;21257;-86
2022/09/26 00:49:11;;;;;;;5.43;4.90;;;10.80;88.20;;;;;;4951406;28;20529;-86
2022/09/26 00:51:42;;;;;;;5.23;4.70;;;10.80;88.10;;;;;;4949909;28;20491;-86
2022/09/26 00:54:12;;;;;;;5.10;4.53;;;10.80;88.20;;;;;;4954549;28;20517;-86
2022/09/26 00:56:42;;;;;;;8.10;4.70;;;10.80;88.50;;;;;;4954824;28;20885;-86
2022/09/26 00:59:23;;;;;;;21.30;14.43;;;10.90;88.10;;;;;;4953718;28;20466;-86
2022/09/26 01:01:53;;;;;;;42.03;24.13;;;10.90;88.00;;;;;;4948152;28;20991;-86
2022/09/26 01:04:24;;;;;;;21.57;15.37;;;10.90;87.60;;;;;;4954887;28;20498;-86
2022/09/26 01:06:51;;;;;;;15.63;9.90;;;11.00;87.30;;;;;;4967855;28;20470;-86
2022/09/26 01:09:19;;;;;;;9.00;6.77;;;11.00;86.70;;;;;;4953080;28;20530;-86
2022/09/26 01:11:45;;;;;;;8.40;6.33;;;11.10;86.30;;;;;;4958603;28;20976;-86
2022/09/26 01:14:12;;;;;;;6.77;4.70;;;11.10;86.40;;;;;;4972142;28;20462;-86
2022/09/26 01:16:43;;;;;;;5.30;4.30;;;11.10;86.30;;;;;;4969728;28;20547;-86
2022/09/26 01:19:54;;;;;;;9.37;4.20;;;11.20;86.30;;;;;;4953888;28;20869;-86
2022/09/26 01:22:39;;;;;;;5.70;4.43;;;11.10;86.50;;;;;;4948892;28;20907;-86
2022/09/26 01:25:15;;;;;;;4.90;4.50;;;10.90;87.00;;;;;;4952654;28;20875;-86
2022/09/26 01:27:45;;;;;;;6.33;4.10;;;10.80;87.80;;;;;;4953845;28;20497;-86
2022/09/26 01:30:12;;;;;;;6.23;4.60;;;10.80;88.10;;;;;;4970159;28;20536;-86
2022/09/26 01:33:12;;;;;;;5.53;4.97;;;10.80;88.00;;;;;;4946094;28;20471;-86
2022/09/26 01:35:48;;;;;;;6.10;4.10;;;10.70;88.70;;;;;;4969512;28;20462;-86
2022/09/26 01:38:27;;;;;;;7.73;5.43;;;10.80;88.30;;;;;;4953565;28;20474;-86
2022/09/26 01:41:03;;;;;;;8.63;4.57;;;10.90;87.50;;;;;;4966794;28;20502;-86
2022/09/26 01:43:41;;;;;;;7.80;4.53;;;10.80;87.60;;;;;;4950741;28;20983;-86
2022/09/26 01:46:32;;;;;;;5.10;4.60;;;10.60;88.40;;;;;;4965663;28;20461;-86
2022/09/26 01:49:11;;;;;;;6.83;4.77;;;10.60;88.80;;;;;;4952241;28;20479;-86
2022/09/26 01:51:51;;;;;;;4.70;3.97;;;10.60;88.00;;;;;;4949859;28;20458;-86
2022/09/26 01:54:26;;;;;;;6.30;4.57;;;10.80;87.80;;;;;;4951680;28;21336;-86
2022/09/26 01:56:57;;;;;;;8.43;5.17;;;10.80;86.90;;;;;;4964829;28;20465;-86
2022/09/26 01:59:42;;;;;;;8.33;4.60;;;10.90;86.70;;;;;;4951678;28;21045;-86
2022/09/26 02:02:18;;;;;;;5.00;4.50;;;10.80;86.40;;;;;;4952554;28;20462;-86
2022/09/26 02:04:49;;;;;;;6.57;4.40;;;10.80;87.10;;;;;;4970865;28;20470;-86
2022/09/26 02:07:19;;;;;;;5.30;4.80;;;10.60;87.20;;;;;;4966454;28;20454;-86
2022/09/26 02:10:23;;;;;;;9.20;4.60;;;10.60;87.50;;;;;;4972230;28;20466;-86
2022/09/26 02:12:56;;;;;;;5.27;4.73;;;10.70;87.10;;;;;;4971117;28;20490;-86
2022/09/26 02:15:25;;;;;;;5.60;4.43;;;10.70;87.30;;;;;;4968716;28;20516;-86
2022/09/26 02:18:06;;;;;;;6.23;4.37;;;10.70;87.00;;;;;;4957517;28;20520;-86
2022/09/26 02:20:36;;;;;;;7.83;4.30;;;10.80;86.40;;;;;;4956734;28;20501;-86
2022/09/26 02:23:03;;;;;;;9.47;5.17;;;10.80;86.60;;;;;;4957731;28;20517;-86
2022/09/26 02:25:31;;;;;;;5.93;4.87;;;10.70;86.60;;;;;;4971717;28;20457;-86
2022/09/26 02:27:59;;;;;;;5.57;4.47;;;10.80;86.30;;;;;;4973257;28;20462;-86
2022/09/26 02:30:25;;;;;;;6.13;4.87;;;10.80;86.20;;;;;;4970486;28;20871;-86
2022/09/26 02:32:52;;;;;;;6.23;5.00;;;10.60;86.50;;;;;;4956647;28;20863;-86
2022/09/26 02:38:06;;;;;;;5.13;4.57;;;10.60;86.90;;;;;;4970965;28;20481;-88
2022/09/26 02:40:51;;;;;;;9.60;5.03;;;10.60;86.80;;;;;;4957345;28;20513;-89
2022/09/26 02:43:43;;;;;;;5.63;4.93;;;10.60;86.90;;;;;;4974456;28;20952;-89
2022/09/26 02:46:28;;;;;;;6.10;4.80;;;10.60;86.40;;;;;;4974472;28;20527;-89
2022/09/26 02:49:14;;;;;;;7.63;5.60;;;10.40;87.60;;;;;;4954383;28;20473;-88
2022/09/26 02:52:18;;;;;;;4.90;4.50;;;10.20;88.10;;;;;;4970658;28;20880;-88
2022/09/26 02:55:05;;;;;;;5.23;4.57;;;10.20;88.20;;;;;;4969551;28;20466;-89
2022/09/26 02:57:39;;;;;;;5.67;4.53;;;10.30;87.60;;;;;;4971532;28;20527;-88
2022/09/26 03:00:12;;;;;;;5.80;5.30;;;10.30;87.50;;;;;;4974582;28;20902;-89
2022/09/26 03:03:06;;;;;;;9.70;5.67;;;10.40;87.20;;;;;;4974053;28;20492;-88
2022/09/26 03:05:37;;;;;;;5.83;4.37;;;10.40;87.00;;;;;;4974236;28;20466;-88
2022/09/26 03:08:20;;;;;;;7.20;5.00;;;10.50;86.40;;;;;;4953316;28;20728;-89
2022/09/26 03:10:48;;;;;;;6.53;4.60;;;10.50;86.20;;;;;;4956222;28;20514;-89
2022/09/26 03:13:17;;;;;;;5.90;5.40;;;10.50;85.80;;;;;;4971941;28;20903;-89
2022/09/26 03:15:49;;;;;;;7.30;5.07;;;10.50;86.00;;;;;;4975620;28;20462;-88
2022/09/26 03:18:19;;;;;;;5.00;4.40;;;10.40;86.00;;;;;;4959904;28;20478;-89
2022/09/26 03:20:47;;;;;;;5.30;4.80;;;10.40;86.40;;;;;;4956413;28;20479;-88
2022/09/26 03:23:13;;;;;;;6.50;5.10;;;10.40;86.40;;;;;;4958727;28;20497;-89
2022/09/26 03:25:40;;;;;;;4.97;4.33;;;10.30;86.20;;;;;;4972742;28;20458;-89
2022/09/26 03:28:07;;;;;;;4.93;4.53;;;10.20;87.00;;;;;;4955463;28;20848;-89
2022/09/26 03:30:34;;;;;;;5.23;4.70;;;10.20;87.20;;;;;;4972562;28;20458;-88
2022/09/26 03:33:02;;;;;;;5.47;4.63;;;10.20;87.30;;;;;;4957615;28;20513;-88
2022/09/26 03:35:29;;;;;;;5.40;4.50;;;10.30;87.00;;;;;;4969863;28;20947;-89
2022/09/26 03:37:55;;;;;;;7.47;6.10;;;10.30;86.80;;;;;;4970965;28;20450;-89
2022/09/26 03:40:22;;;;;;;6.30;4.77;;;10.30;86.50;;;;;;4972291;28;20474;-89
2022/09/26 03:42:49;;;;;;;6.83;5.60;;;10.30;86.90;;;;;;4959735;28;20478;-89
2022/09/26 03:45:16;;;;;;;5.47;4.97;;;10.20;87.10;;;;;;4970751;28;20540;-88
2022/09/26 03:47:42;;;;;;;5.53;5.03;;;10.20;87.20;;;;;;4969818;28;20537;-89
2022/09/26 03:50:09;;;;;;;7.23;5.10;;;10.10;87.10;;;;;;4969145;28;20505;-89
2022/09/26 03:52:36;;;;;;;7.27;5.27;;;10.20;87.30;;;;;;4961223;28;20462;-88
2022/09/26 03:55:03;;;;;;;4.97;4.57;;;10.20;87.10;;;;;;4974403;28;21043;-88
2022/09/26 03:57:30;;;;;;;6.03;4.87;;;10.20;87.00;;;;;;4970155;28;20458;-88
2022/09/26 03:59:57;;;;;;;7.00;5.80;;;10.30;86.80;;;;;;4955682;28;20510;-88
2022/09/26 04:02:23;;;;;;;5.73;5.03;;;10.10;86.90;;;;;;4967480;28;20529;-89
2022/09/26 04:04:50;;;;;;;9.03;5.80;;;10.00;88.00;;;;;;4967587;28;20609;-89
2022/09/26 04:07:17;;;;;;;7.00;4.70;;;10.10;88.30;;;;;;4968812;28;20952;-89
2022/09/26 04:09:44;;;;;;;7.87;5.30;;;10.10;87.80;;;;;;4954119;28;20494;-88
2022/09/26 04:12:10;;;;;;;6.20;5.60;;;10.10;88.20;;;;;;4953134;28;20462;-89
2022/09/26 04:14:37;;;;;;;6.17;5.57;;;10.10;87.80;;;;;;4970689;28;20940;-88
2022/09/26 04:17:03;;;;;;;6.60;5.87;;;10.20;88.50;;;;;;4969013;28;20489;-89
2022/09/26 04:19:30;;;;;;;6.33;5.70;;;10.30;87.80;;;;;;4950098;28;20466;-89
2022/09/26 04:21:57;;;;;;;9.30;5.53;;;10.30;88.10;;;;;;4968765;28;20474;-89
2022/09/26 04:24:24;;;;;;;7.13;5.40;;;10.40;88.10;;;;;;4959099;28;20500;-88
2022/09/26 04:26:51;;;;;;;6.43;5.40;;;10.40;88.10;;;;;;4972453;28;20907;-88
2022/09/26 04:29:17;;;;;;;6.63;6.10;;;10.30;88.30;;;;;;4969150;28;20462;-88
2022/09/26 04:31:45;;;;;;;7.53;5.00;;;10.30;88.40;;;;;;4968567;28;20542;-88
2022/09/26 04:34:11;;;;;;;6.03;5.50;;;10.20;88.70;;;;;;4968862;28;20514;-89
2022/09/26 04:36:38;;;;;;;7.00;6.30;;;10.20;88.80;;;;;;4955092;28;20466;-89
2022/09/26 04:39:05;;;;;;;7.70;6.97;;;10.20;88.70;;;;;;4955783;28;20469;-88
2022/09/26 04:41:32;;;;;;;6.50;5.90;;;10.20;88.60;;;;;;4956310;28;20981;-89
2022/09/26 04:44:00;;;;;;;7.57;6.27;;;10.20;88.70;;;;;;4972899;28;21026;-89
2022/09/26 04:46:28;;;;;;;6.00;5.50;;;10.30;88.40;;;;;;4966233;28;20466;-88
2022/09/26 04:48:59;;;;;;;7.70;6.93;;;10.40;87.60;;;;;;4953067;28;20478;-89
2022/09/26 04:51:27;;;;;;;7.50;5.67;;;10.30;87.60;;;;;;4972459;28;20461;-89
2022/09/26 04:53:54;;;;;;;8.83;7.50;;;10.20;87.90;;;;;;4967341;28;20462;-88
2022/09/26 04:56:23;;;;;;;6.90;6.20;;;10.20;88.50;;;;;;4970491;28;20462;-89
2022/09/26 04:58:49;;;;;;;9.03;7.30;;;10.20;88.50;;;;;;4971749;28;20470;-88
2022/09/26 05:01:19;;;;;;;8.80;7.00;;;10.30;88.10;;;;;;4963601;28;20494;-89
2022/09/26 05:03:46;;;;;;;8.63;6.37;;;10.20;88.40;;;;;;4955644;28;20493;-88
2022/09/26 05:06:15;;;;;;;9.00;6.40;;;10.20;88.60;;;;;;4954205;28;20470;-88
2022/09/26 05:08:45;;;;;;;8.90;6.70;;;10.30;88.20;;;;;;4968640;28;20595;-88
2022/09/26 05:11:13;;;;;;;8.77;7.27;;;10.30;88.20;;;;;;4967473;28;20467;-88
2022/09/26 05:13:39;;;;;;;8.60;7.70;;;10.40;88.10;;;;;;4953109;28;20516;-89
2022/09/26 05:16:09;;;;;;;8.87;7.67;;;10.40;88.10;;;;;;4968551;28;20470;-89
2022/09/26 05:18:38;;;;;;;8.33;7.13;;;10.40;88.30;;;;;;4954069;28;20503;-89
2022/09/26 05:21:06;;;;;;;10.20;8.30;;;10.40;88.00;;;;;;4952078;28;20445;-88
2022/09/26 05:26:19;;;;;;;10.13;7.50;;;10.20;88.70;;;;;;4967994;28;20877;-89
2022/09/26 05:29:04;;;;;;;8.70;7.13;;;10.20;88.90;;;;;;4966546;28;20471;-88
2022/09/26 05:31:36;;;;;;;12.10;7.73;;;10.40;88.50;;;;;;4965894;28;20489;-88
2022/09/26 05:34:09;;;;;;;7.57;6.80;;;10.40;88.50;;;;;;4955115;28;20462;-89
2022/09/26 05:36:41;;;;;;;8.80;7.37;;;10.40;88.40;;;;;;4955634;28;20975;-89
2022/09/26 05:40:55;;;;;;;7.27;6.57;;;10.50;88.10;;;;;;4972656;28;20556;-88
2022/09/26 05:41:57;;;;;;;9.70;8.70;;;10.50;88.20;;;;;;4969355;28;20524;-88
2022/09/26 05:44:24;;;;;;;7.93;7.13;;;10.50;87.90;;;;;;4970394;28;20549;-89
2022/09/26 05:46:51;;;;;;;9.60;7.97;;;10.60;88.00;;;;;;4970063;28;20466;-89
2022/09/26 05:49:18;;;;;;;8.47;7.57;;;10.60;88.00;;;;;;4969648;28;20561;-88
2022/09/26 05:51:45;;;;;;;10.87;7.80;;;10.60;87.70;;;;;;4969389;28;20469;-89
2022/09/26 05:54:12;;;;;;;8.77;7.87;;;10.50;88.10;;;;;;4952260;28;20474;-89
2022/09/26 05:56:38;;;;;;;8.00;6.90;;;10.50;87.90;;;;;;4954082;28;21100;-89
2022/09/26 05:59:05;;;;;;;7.87;7.07;;;10.50;88.00;;;;;;4954822;28;21030;-89
2022/09/26 06:01:33;;;;;;;9.87;6.97;;;10.50;88.00;;;;;;4972675;28;20996;-89
2022/09/26 06:04:01;;;;;;;10.60;7.13;;;10.50;87.80;;;;;;4950201;28;20490;-89
2022/09/26 06:06:29;;;;;;;7.73;6.90;;;10.50;87.70;;;;;;4957648;28;20466;-88
2022/09/26 06:08:55;;;;;;;10.10;7.87;;;10.30;88.30;;;;;;4973274;28;20547;-89
2022/09/26 06:11:27;;;;;;;9.30;7.37;;;10.30;88.70;;;;;;4970436;28;20473;-88
2022/09/26 06:13:54;;;;;;;8.60;7.10;;;10.30;88.80;;;;;;4954886;28;20454;-89
2022/09/26 06:16:21;;;;;;;8.17;6.97;;;10.40;89.00;;;;;;4973081;28;20477;-89
2022/09/26 06:18:50;;;;;;;12.00;7.53;;;10.40;88.40;;;;;;4954812;28;20526;-89
2022/09/26 06:21:17;;;;;;;9.00;7.10;;;10.40;88.30;;;;;;4954362;28;20501;-88
2022/09/26 06:23:44;;;;;;;10.17;7.67;;;10.30;89.00;;;;;;4975624;28;20477;-88
2022/09/26 06:26:19;;;;;;;10.10;8.30;;;10.30;89.40;;;;;;4956215;28;20434;-89
2022/09/26 06:28:46;;;;;;;9.50;8.50;;;10.40;89.00;;;;;;4970178;28;20532;-88
2022/09/26 06:31:15;;;;;;;12.27;9.10;;;10.50;88.80;;;;;;4949489;28;21079;-89
2022/09/26 06:33:42;;;;;;;11.20;9.43;;;10.40;89.10;;;;;;4969673;28;20446;-89
2022/09/26 06:36:10;;;;;;;10.20;8.63;;;10.60;89.30;;;;;;4955733;28;20496;-88
2022/09/26 06:38:37;;;;;;;10.70;8.53;;;10.60;89.30;;;;;;4955044;28;20462;-89
2022/09/26 06:41:06;;;;;;;12.17;9.00;;;10.70;89.50;;;;;;4956598;28;20533;-89
2022/09/26 06:43:33;;;;;;;12.07;10.10;;;10.80;89.30;;;;;;4952258;28;20453;-88
2022/09/26 06:46:00;;;;;;;11.77;10.10;;;10.80;89.40;;;;;;4971407;28;20466;-88
2022/09/26 06:48:26;;;;;;;11.10;9.73;;;10.80;89.40;;;;;;4953081;28;20517;-89
2022/09/26 06:50:55;;;;;;;11.93;9.80;;;10.80;89.50;;;;;;4955272;28;20490;-88
2022/09/26 06:53:22;;;;;;;14.53;10.07;;;10.80;89.70;;;;;;4960156;28;20454;-88
2022/09/26 06:55:49;;;;;;;12.97;10.17;;;10.80;89.80;;;;;;4974652;28;20497;-88
2022/09/26 06:58:16;;;;;;;12.23;9.80;;;10.90;89.80;;;;;;4961839;28;20450;-88
2022/09/26 07:00:42;;;;;;;13.57;10.70;;;10.90;89.80;;;;;;4955367;28;20536;-88
2022/09/26 07:03:10;;;;;;;17.10;10.13;;;10.90;89.80;;;;;;4960265;28;20462;-89
2022/09/26 07:05:38;;;;;;;10.73;8.97;;;11.00;89.60;;;;;;4958326;28;20493;-88
2022/09/26 07:08:05;;;;;;;15.13;9.53;;;10.90;89.80;;;;;;4954279;28;20495;-89
2022/09/26 07:10:34;;;;;;;16.97;9.90;;;11.00;89.80;;;;;;4975897;28;20881;-88
2022/09/26 07:13:04;;;;;;;14.73;11.17;;;11.00;89.80;;;;;;4961276;28;20469;-88
2022/09/26 07:15:32;;;;;;;13.80;10.43;;;11.10;89.70;;;;;;4972308;28;20465;-88
2022/09/26 07:18:01;;;;;;;12.97;10.47;;;11.00;89.80;;;;;;4973504;28;20925;-88
2022/09/26 07:20:33;;;;;;;11.33;10.07;;;11.10;89.80;;;;;;4973154;28;20477;-88
2022/09/26 07:23:01;;;;;;;13.70;9.50;;;11.10;89.80;;;;;;4975026;28;20474;-88
2022/09/26 07:25:30;;;;;;;14.00;10.03;;;11.10;89.80;;;;;;4963508;28;20581;-88
2022/09/26 07:27:57;;;;;;;10.77;8.60;;;11.10;89.80;;;;;;4976831;28;20943;-88
2022/09/26 07:30:25;;;;;;;16.47;8.87;;;11.20;89.80;;;;;;4959021;28;20518;-88
2022/09/26 07:32:51;;;;;;;10.23;8.57;;;11.30;89.80;;;;;;4956386;28;20494;-88
2022/09/26 07:35:18;;;;;;;14.80;8.77;;;11.30;89.80;;;;;;4972796;28;20514;-88
2022/09/26 07:37:49;;;;;;;13.37;8.40;;;11.40;89.80;;;;;;4955925;28;20461;-88
2022/09/26 07:40:16;;;;;;;11.60;8.17;;;11.50;89.70;;;;;;4976642;28;20470;-88
2022/09/26 07:42:44;;;;;;;10.90;7.83;;;11.50;89.60;;;;;;4960251;28;20462;-88
2022/09/26 07:51:10;;;;;;;7.80;6.53;;;11.80;88.70;;;;;;4974754;28;20553;-89
2022/09/26 07:53:40;;;;;;;8.60;7.23;;;11.90;88.30;;;;;;4957603;28;20462;-89
2022/09/26 07:56:10;;;;;;;9.63;6.27;;;12.00;88.30;;;;;;4958056;28;20634;-89
2022/09/26 07:58:41;;;;;;;8.07;5.80;;;12.00;88.10;;;;;;4975416;28;20997;-88
2022/09/26 08:01:10;;;;;;;6.93;5.63;;;12.10;87.70;;;;;;4956114;28;20881;-89
2022/09/26 08:03:42;;;;;;;8.53;5.73;;;12.10;87.70;;;;;;4972660;28;20505;-88
2022/09/26 08:06:11;;;;;;;11.77;5.93;;;12.10;87.60;;;;;;4976930;28;20489;-88
2022/09/26 08:08:38;;;;;;;9.77;6.37;;;12.20;87.30;;;;;;4955366;28;20478;-88
2022/09/26 08:11:11;;;;;;;7.90;5.73;;;12.20;87.20;;;;;;4956910;28;20462;-89
2022/09/26 08:13:38;;;;;;;5.53;5.03;;;12.30;87.00;;;;;;4976789;28;21366;-88
2022/09/26 08:16:04;;;;;;;5.67;5.10;;;12.40;86.90;;;;;;4974006;28;20482;-88
2022/09/26 08:18:32;;;;;;;6.50;5.77;;;12.50;85.90;;;;;;4959949;28;20493;-88
2022/09/26 08:21:06;;;;;;;5.53;4.20;;;12.50;85.50;;;;;;4965524;28;20585;-88
2022/09/26 08:23:34;;;;;;;8.93;5.00;;;12.50;85.40;;;;;;4973506;28;20446;-88
2022/09/26 08:26:05;;;;;;;7.37;5.27;;;12.60;85.00;;;;;;4954625;28;20506;-88
2022/09/26 08:28:33;;;;;;;6.87;4.23;;;12.70;84.40;;;;;;4956712;28;20489;-88
2022/09/26 08:31:03;;;;;;;7.23;4.33;;;12.80;83.50;;;;;;4953109;28;20478;-89
2022/09/26 08:33:36;;;;;;;5.57;3.93;;;12.90;83.30;;;;;;4955981;28;20517;-89
2022/09/26 08:36:04;;;;;;;5.93;3.80;;;12.90;83.00;;;;;;4975045;28;20461;-88
2022/09/26 08:38:32;;;;;;;8.40;4.10;;;13.00;82.60;;;;;;4954552;28;20462;-89
2022/09/26 08:41:23;;;;;;;5.73;3.67;;;13.00;83.30;;;;;;4957709;28;20492;-88
2022/09/26 08:44:21;;;;;;;6.97;3.93;;;13.00;83.00;;;;;;4972543;28;20509;-88
2022/09/26 08:47:04;;;;;;;4.63;3.90;;;13.10;82.60;;;;;;4970669;28;20991;-88
2022/09/26 08:49:31;;;;;;;6.13;3.33;;;13.20;82.10;;;;;;4955740;28;20509;-88
2022/09/26 08:52:00;;;;;;;5.27;4.03;;;13.20;82.50;;;;;;4969057;28;20870;-89
2022/09/26 08:54:35;;;;;;;5.17;3.47;;;13.30;80.70;;;;;;4953995;28;20548;-88
2022/09/26 08:57:12;;;;;;;4.83;3.57;;;13.30;80.40;;;;;;4953613;28;20497;-88
2022/09/26 08:59:45;;;;;;;5.13;2.93;;;13.40;80.70;;;;;;4969249;28;20497;-88
2022/09/26 09:02:32;;;;;;;4.00;2.67;;;13.50;79.30;;;;;;4953702;28;20480;-88
2022/09/26 09:05:09;;;;;;;4.67;2.20;;;13.60;78.60;;;;;;4971099;28;20572;-90
2022/09/26 09:07:35;;;;;;;5.70;2.97;;;13.70;78.40;;;;;;4955032;28;20525;-88
2022/09/26 09:10:05;;;;;;;6.07;2.70;;;13.70;78.90;;;;;;4970693;28;20469;-88
2022/09/26 09:13:09;;;;;;;5.57;3.57;;;13.80;78.60;;;;;;4970257;28;20806;-88
2022/09/26 09:15:54;;;;;;;2.37;2.17;;;13.80;78.50;;;;;;4956208;28;21430;-88
2022/09/26 09:18:44;;;;;;;3.27;2.07;;;13.80;78.10;;;;;;4955520;28;20477;-88
2022/09/26 09:21:16;;;;;;;3.83;2.50;;;13.90;77.90;;;;;;4974637;28;20447;-88
2022/09/26 09:24:11;;;;;;;3.70;2.13;;;13.90;77.20;;;;;;4973096;28;20521;-88
2022/09/26 09:26:58;;;;;;;2.67;2.47;;;14.00;77.60;;;;;;4974362;28;20431;-88
2022/09/26 09:30:16;;;;;;;2.30;2.20;;;14.00;77.50;;;;;;4972166;28;20459;-89
2022/09/26 09:32:57;;;;;;;4.10;2.80;;;14.10;76.20;;;;;;4955989;28;20470;-88
2022/09/26 09:35:58;;;;;;;6.00;2.40;;;14.10;75.40;;;;;;4969455;28;20931;-88
2022/09/26 09:38:33;;;;;;;8.90;2.93;;;14.20;75.40;;;;;;4939380;28;21022;-88
2022/09/26 09:41:17;;;;;;;4.10;2.30;;;14.20;75.10;;;;;;4954079;28;20462;-88
2022/09/26 09:44:08;;;;;;;8.23;2.60;;;14.30;76.00;;;;;;4967282;28;20475;-88
2022/09/26 09:46:39;;;;;;;5.40;2.67;;;14.30;76.20;;;;;;4971772;28;20498;-88
2022/09/26 09:49:15;;;;;;;3.33;2.77;;;14.30;77.10;;;;;;4953102;28;20556;-88
2022/09/26 09:52:07;;;;;;;6.00;2.80;;;14.30;76.20;;;;;;4954463;28;20856;-88
2022/09/26 09:54:45;;;;;;;3.30;2.40;;;14.40;76.40;;;;;;4971468;28;20450;-89
2022/09/26 09:57:30;;;;;;;3.10;2.80;;;14.50;74.20;;;;;;4969857;28;21127;-88
2022/09/26 10:00:13;;;;;;;4.77;2.83;;;14.60;73.60;;;;;;4970153;28;21243;-88
2022/09/26 10:03:01;;;;;;;7.00;2.80;;;14.60;74.50;;;;;;4955410;28;20545;-88
2022/09/26 10:05:41;;;;;;;6.43;2.80;;;14.60;74.10;;;;;;4954890;28;20489;-88
2022/09/26 10:08:28;;;;;;;5.40;3.40;;;14.60;73.70;;;;;;4975632;28;20466;-88
2022/09/26 10:11:22;;;;;;;4.50;2.50;;;14.60;73.40;;;;;;4954162;28;20597;-88
2022/09/26 10:13:55;;;;;;;6.37;3.10;;;14.70;72.70;;;;;;4970178;28;20521;-88
2022/09/26 10:16:23;;;;;;;5.00;3.27;;;14.70;73.10;;;;;;4954229;28;20490;-88
2022/09/26 10:19:06;;;;;;;3.17;2.87;;;14.60;73.30;;;;;;4957125;28;20832;-88
2022/09/26 10:21:38;;;;;;;5.00;3.30;;;14.60;73.70;;;;;;4955293;28;20983;-88
2022/09/26 10:24:23;;;;;;;3.53;3.23;;;14.60;73.80;;;;;;4956400;28;20505;-88
2022/09/26 10:26:50;;;;;;;5.33;3.60;;;14.60;75.20;;;;;;4952168;28;20446;-88
2022/09/26 10:29:33;;;;;;;4.00;3.30;;;14.60;74.10;;;;;;4968925;28;20469;-88
2022/09/26 10:32:01;;;;;;;6.67;3.77;;;14.60;73.70;;;;;;4971426;28;20462;-88
2022/09/26 10:35:01;;;;;;;5.73;3.83;;;14.70;73.70;;;;;;4962073;28;20458;-88
2022/09/26 10:37:29;;;;;;;5.70;4.03;;;14.80;72.70;;;;;;4966048;28;20478;-88
2022/09/26 10:42:45;;;;;;;10.83;4.40;;;14.90;72.70;;;;;;4973975;28;20867;-88
2022/09/26 10:45:19;;;;;;;5.17;4.20;;;14.90;72.20;;;;;;4960553;28;20893;-88
2022/09/26 10:47:49;;;;;;;5.80;3.93;;;14.90;72.50;;;;;;4977333;28;20471;-88
2022/09/26 10:50:23;;;;;;;4.80;4.30;;;14.80;72.00;;;;;;4972767;28;20470;-88
2022/09/26 10:52:55;;;;;;;7.50;4.90;;;14.80;72.10;;;;;;4959084;28;20461;-88
2022/09/26 10:55:28;;;;;;;7.03;4.50;;;14.80;71.80;;;;;;4956068;28;20514;-88
2022/09/26 10:57:58;;;;;;;7.20;4.87;;;14.70;72.40;;;;;;4970846;28;20525;-88
2022/09/26 11:00:48;;;;;;;12.07;8.13;;;14.70;71.70;;;;;;4970834;28;20546;-88
2022/09/26 11:03:18;;;;;;;4.93;4.13;;;14.70;71.80;;;;;;4974085;28;20476;-88
2022/09/26 11:05:56;;;;;;;5.70;4.73;;;14.60;72.10;;;;;;4970046;28;20500;-88
2022/09/26 11:08:30;;;;;;;6.77;5.60;;;14.60;72.60;;;;;;4971966;28;20517;-88
2022/09/26 11:11:00;;;;;;;7.13;5.73;;;14.60;73.30;;;;;;4974215;28;20810;-88
2022/09/26 11:13:39;;;;;;;6.53;5.80;;;14.70;72.60;;;;;;4957093;28;20585;-88
2022/09/26 11:16:14;;;;;;;6.43;5.70;;;14.60;73.80;;;;;;4960112;28;20991;-88
2022/09/26 11:18:43;;;;;;;6.17;4.80;;;14.60;73.90;;;;;;4971939;28;20458;-88
2022/09/26 11:21:55;;;;;;;4.73;3.53;;;14.60;73.40;;;;;;4971411;28;20979;-88
2022/09/26 11:24:36;;;;;;;5.80;3.30;;;14.70;71.70;;;;;;4962237;28;20465;-88
2022/09/26 11:27:30;;;;;;;5.37;4.10;;;14.80;71.30;;;;;;4969211;28;21023;-88
2022/09/26 11:30:19;;;;;;;5.17;4.40;;;14.80;71.40;;;;;;4954964;28;20501;-88
2022/09/26 11:32:51;;;;;;;6.40;3.80;;;14.80;70.80;;;;;;4973512;28;20470;-88
2022/09/26 11:35:43;;;;;;;4.17;3.50;;;14.80;71.80;;;;;;4960629;28;20963;-88
2022/09/26 11:38:37;;;;;;;4.47;3.40;;;14.80;70.90;;;;;;4954764;28;20513;-88
2022/09/26 11:41:35;;;;;;;4.70;3.43;;;14.80;70.30;;;;;;4972580;28;20470;-88
2022/09/26 11:44:39;;;;;;;4.80;2.93;;;14.80;69.40;;;;;;4969722;28;20560;-88
2022/09/26 11:47:25;;;;;;;4.00;3.20;;;14.90;69.20;;;;;;4970294;28;20462;-88
2022/09/26 11:50:19;;;;;;;2.93;2.63;;;14.70;70.70;;;;;;4956289;28;20469;-88
2022/09/26 11:52:57;;;;;;;6.03;3.47;;;14.70;71.10;;;;;;4953578;28;20939;-88
2022/09/26 11:55:40;;;;;;;4.17;3.20;;;14.70;71.00;;;;;;4955585;28;20466;-88
2022/09/26 11:58:46;;;;;;;3.23;2.93;;;14.80;69.50;;;;;;4959292;28;20929;-88
2022/09/26 12:01:34;;;;;;;4.27;2.97;;;14.80;70.70;;;;;;4921520;28;20538;-88
2022/09/26 12:04:10;;;;;;;5.00;2.80;;;14.80;70.50;;;;;;4971646;28;21819;-88
2022/09/26 12:06:45;;;;;;;3.50;3.00;;;14.90;70.20;;;;;;4972859;28;20489;-88
2022/09/26 12:09:57;;;;;;;3.13;2.63;;;14.90;70.00;;;;;;4972220;28;21023;-88
2022/09/26 12:12:56;;;;;;;6.17;4.97;;;14.90;70.80;;;;;;4930076;28;20482;-88
2022/09/26 12:15:53;;;;;;;7.53;3.03;;;14.90;70.90;;;;;;4964966;28;20463;-88
2022/09/26 12:18:31;;;;;;;2.83;2.63;;;14.90;70.50;;;;;;4970393;28;20532;-88
2022/09/26 12:21:23;;;;;;;5.33;3.70;;;14.90;71.60;;;;;;4972786;28;20474;-88
2022/09/26 12:24:17;;;;;;;3.43;2.73;;;14.80;72.20;;;;;;4971354;28;20482;-88
2022/09/26 12:26:56;;;;;;;4.70;2.70;;;14.80;72.80;;;;;;4957505;28;20522;-88
2022/09/26 12:29:36;;;;;;;3.20;2.70;;;14.80;72.60;;;;;;4972577;28;20458;-88
2022/09/26 12:32:32;;;;;;;4.70;2.40;;;14.80;72.10;;;;;;4967435;28;20516;-88
2022/09/26 12:35:20;;;;;;;3.30;2.70;;;14.80;72.90;;;;;;4966686;28;20462;-88
2022/09/26 12:38:06;;;;;;;2.97;2.63;;;14.70;74.10;;;;;;4956136;28;21762;-88
2022/09/26 12:40:51;;;;;;;3.63;3.03;;;14.70;75.00;;;;;;4970817;28;20465;-88
2022/09/26 12:43:45;;;;;;;6.17;3.30;;;14.60;76.30;;;;;;4970956;28;20493;-88
2022/09/26 12:46:27;;;;;;;5.00;3.50;;;14.50;77.20;;;;;;4969318;28;20494;-88
2022/09/26 12:49:00;;;;;;;3.93;2.90;;;14.50;78.30;;;;;;4970676;28;20979;-88
2022/09/26 12:51:47;;;;;;;6.37;3.13;;;14.40;78.10;;;;;;4970133;28;20829;-88
2022/09/26 12:54:19;;;;;;;3.80;3.10;;;14.40;78.40;;;;;;4969647;28;20598;-88
2022/09/26 12:57:07;;;;;;;3.37;3.10;;;14.40;79.50;;;;;;4968726;28;20525;-88
2022/09/26 13:00:10;;;;;;;6.67;3.10;;;14.40;79.70;;;;;;4972028;28;20474;-88
2022/09/26 13:03:13;;;;;;;3.30;3.00;;;14.50;78.50;;;;;;4969672;28;20458;-88
2022/09/26 13:05:45;;;;;;;3.53;2.90;;;14.50;78.80;;;;;;4958669;28;20490;-88
2022/09/26 13:08:29;;;;;;;3.33;3.10;;;14.50;78.90;;;;;;4973779;28;20621;-88
2022/09/26 13:11:14;;;;;;;3.77;3.00;;;14.50;78.40;;;;;;4956676;28;20517;-88
2022/09/26 13:14:13;;;;;;;3.20;2.70;;;14.60;77.70;;;;;;4971838;28;20458;-88
2022/09/26 13:16:49;;;;;;;3.10;2.80;;;14.60;78.00;;;;;;4972656;28;20497;-88
2022/09/26 13:19:40;;;;;;;4.50;2.57;;;14.50;78.20;;;;;;4956412;28;20457;-88
2022/09/26 13:22:26;;;;;;;3.03;2.80;;;14.60;78.20;;;;;;4973085;28;20494;-88
2022/09/26 13:25:11;;;;;;;4.83;2.67;;;14.60;78.40;;;;;;4970777;28;20871;-88
2022/09/26 13:27:42;;;;;;;3.93;2.47;;;14.70;77.70;;;;;;4970920;28;20450;-88
2022/09/26 13:30:17;;;;;;;2.30;2.20;;;14.60;78.00;;;;;;4974408;28;20462;-88
2022/09/26 13:33:02;;;;;;;2.63;2.43;;;14.60;77.50;;;;;;4972841;28;20464;-88
2022/09/26 13:35:34;;;;;;;3.03;2.30;;;14.60;77.40;;;;;;4961463;28;20519;-88
2022/09/26 13:38:46;;;;;;;3.20;2.70;;;14.60;77.60;;;;;;4966728;28;20529;-88
2022/09/26 13:41:32;;;;;;;3.23;2.60;;;14.50;79.20;;;;;;4955926;28;20474;-88